Home > Products > Valid Products > OSO

000
SXUS56 KLOX 041540
OSOLOX

OFFSHORE OIL PLATFORM IRENE WEATHER
NATIONAL WEATHER SERVICE OXNARD CA
735 AM PST WED MAR 04 2015

OBSERVATION FROM DRILLING RIG "IRENE"
LOCATION 34 DEG 37 MIN N...120 DEG 44 MIN W...30 MILES SW
OF SANTA MARIA...ANEMOMETER LOCATED 305 FEET ABOVE SEA LEVEL.

SPECI 041525Z 04008KT 10SM SKC BKN050 12/03 A3004 RMKS SEAS 4 TO 6
FEET

$$

JLD




















































































































































































































































































000
SXUS56 KLOX 041540
OSOLOX

OFFSHORE OIL PLATFORM IRENE WEATHER
NATIONAL WEATHER SERVICE OXNARD CA
735 AM PST WED MAR 04 2015

OBSERVATION FROM DRILLING RIG "IRENE"
LOCATION 34 DEG 37 MIN N...120 DEG 44 MIN W...30 MILES SW
OF SANTA MARIA...ANEMOMETER LOCATED 305 FEET ABOVE SEA LEVEL.

SPECI 041525Z 04008KT 10SM SKC BKN050 12/03 A3004 RMKS SEAS 4 TO 6
FEET

$$

JLD



















































































































































































































































































    US Dept of Commerce
    National Oceanic and Atmospheric Administration
    National Weather Service
    1325 East West Highway
    Silver Spring, MD 20910
    Page Author: NWS Internet Services Team
Disclaimer
Information Quality
Credits
Glossary
Privacy Policy
Freedom of Information Act (FOIA)
About Us
Career Opportunities